Ganja Airport
UBBG : now visible

Airfield :











YOU CAN JOIN US ON...

 
LOGIN :

Register | Disclaimer

   EN    FR    IT 

 









Legend :    VFR   Marginal VFR   IFR   Intensive IFR   Very Intensive IFR
Visi :
Ceiling :
>= 8 km
>= 3000ft
5 to 8 km
1000 to 3000 ft
1500m to 5 km
500 to 1000 ft
800 to 1500m
200 to 500 ft
< 800m
< 200 ft
Symbols :   Thunderstorms  Fog  Heavy snow  Heavy precipitations  Wind > 20 kt






- Airport Elevation : 1083 ft
- IATA code : KVD


UBBG - Ganja

CURRENT METAR :
  • 071000Z 07010KT 030V110 9999 FEW100 29/13 Q1017 R30/CLRD// NOSIG

EXPIRED METARs :
  • 070930Z 08008KT 020V120 9999 FEW100 28/13 Q1017 R30/CLRD// NOSIG
  • 070900Z 05008KT 360V110 9999 FEW100 27/14 Q1017 R30/CLRD// NOSIG
  • 070830Z 05008KT 010V100 9999 FEW100 26/14 Q1018 R30/CLRD// NOSIG
  • 070800Z 03008KT 340V080 9999 FEW100 26/14 Q1018 R30/CLRD// NOSIG
  • 070730Z 07006KT 360V130 9999 FEW100 25/14 Q1019 R30/CLRD// NOSIG

TAF TAF UBBG
Valid from the 07 at 06:00 until the 08 at 06:00 UTC


070500Z 0706/0806 VRB04KT 9999 FEW040 SCT100 TX32/0712Z TN19/0802Z
BECMG 0709/0711 08010KT
UBBA FIR / Asia



MET'MAP, your aeronautical weather chart ! - Copyright ORBIFLY December 2007 - Disclaimer

ORBIFLY MET'MAP TEAM :

Programming & Development : Alexandra Zaïnal
Concept & original design : Baudouin d'Aumeries
Assistance for programming : Marc-Olivier Méhu
Technical & hardware support : Manuel Goepfert

Contact : metmap@orbifly.com




SOURCES & CREDITS :

   NOAA       Earth
Advisory